In Rescue
 
Open Full Screen Window  High Contrast Mode
Wind Gusting 26 knots
10
January 20, 2021 6:09 PM EST
Weather Information
Wind Direction
  200 °
Wind Speed
  10 kt (12 mph)
Wind Gust
  26 kt (30 mph)
Altimeter
29.61 in
Visibility
10 SM
Temperature
-04° C
25° F
Dewpoint
-08° C
18° F
Humidity
74%
Sky Condition
Overcast @ 3,200 ft
Broken @ 2,700 ft
MVFR

METAR KSJX 202309Z AUTO 20010G26KT 10SM BKN027 OVC032 M04/M08 A2961 RMK AO2 T10361085

FAA Disclaimer: The data displayed is for advisory purposes only and is not to be used for flight planning or operations.